Gualeguaychu Airport


Codes: SAAG/GHU
Name: Gualeguaychu Airport
City: Gualeguaychu
Country: Argentina
Elevation: 75 ft.

Photos at Gualeguaychu Airport


   Photos courtesy of SpottingLog. You can add your own sightings and photos by signing up for a free trial today.



No photos found.

Weather at Gualeguaychu Airport


Time (UTC)DescriptionTempratureWindCloud coverageVisibilityPressureHumidity
23-May-2024 21:00Light Rain12°C13 mph, SE100%10000m1015hPa90%
24-May-2024 00:00Light Rain12°C16 mph, SE100%10000m1018hPa88%
24-May-2024 03:00Light Rain11°C13 mph, SE100%10000m1020hPa83%
24-May-2024 06:00Light Rain10°C16 mph, S100%10000m1022hPa90%
24-May-2024 09:00Light Rain8°C13 mph, S100%10000m1022hPa93%
24-May-2024 12:00Light Rain8°C11 mph, SW100%10000m1025hPa93%
24-May-2024 15:00Broken Clouds10°C13 mph, S56%10000m1025hPa73%
24-May-2024 18:00Scattered Clouds11°C13 mph, S35%10000m1024hPa55%
24-May-2024 21:00Clear Sky8°C9 mph, SW6%10000m1025hPa68%
25-May-2024 00:00Scattered Clouds6°C9 mph, SW28%10000m1027hPa73%
25-May-2024 03:00Overcast Clouds5°C7 mph, S100%10000m1028hPa74%
25-May-2024 06:00Overcast Clouds5°C7 mph, S100%10000m1029hPa79%
25-May-2024 09:00Overcast Clouds4°C7 mph, S98%10000m1029hPa81%
25-May-2024 12:00Overcast Clouds5°C4 mph, S93%10000m1031hPa75%
25-May-2024 15:00Overcast Clouds10°C9 mph, SE99%10000m1031hPa63%
25-May-2024 18:00Overcast Clouds10°C9 mph, SE98%10000m1030hPa59%
25-May-2024 21:00Overcast Clouds8°C7 mph, SE100%10000m1030hPa71%
26-May-2024 00:00Overcast Clouds6°C7 mph, SE99%10000m1031hPa77%
26-May-2024 03:00Scattered Clouds4°C7 mph, SE49%10000m1031hPa83%
26-May-2024 06:00Scattered Clouds4°C7 mph, E39%10000m1030hPa87%
26-May-2024 09:00Scattered Clouds3°C7 mph, SE38%10000m1030hPa88%
26-May-2024 12:00Few Clouds5°C7 mph, E23%10000m1031hPa83%
26-May-2024 15:00Clear Sky11°C9 mph, E6%10000m1030hPa66%
26-May-2024 18:00Scattered Clouds12°C7 mph, E34%10000m1027hPa59%
26-May-2024 21:00Overcast Clouds10°C7 mph, SE97%10000m1027hPa68%
27-May-2024 00:00Overcast Clouds7°C7 mph, SE95%10000m1028hPa77%
27-May-2024 03:00Scattered Clouds5°C4 mph, SE25%10000m1028hPa87%
27-May-2024 06:00Broken Clouds7°C4 mph, SE60%10000m1027hPa80%
27-May-2024 09:00Light Rain7°C4 mph, S100%10000m1026hPa88%
27-May-2024 12:00Light Rain8°C7 mph, S100%10000m1028hPa93%
27-May-2024 15:00Light Rain9°C7 mph, S100%10000m1027hPa87%
27-May-2024 18:00Overcast Clouds11°C9 mph, S100%10000m1025hPa79%
27-May-2024 21:00Overcast Clouds10°C9 mph, S100%10000m1026hPa82%
28-May-2024 00:00Overcast Clouds8°C7 mph, SW97%10000m1026hPa85%
28-May-2024 03:00Few Clouds6°C7 mph, SW22%10000m1026hPa88%
28-May-2024 06:00Few Clouds5°C7 mph, SW14%10000m1026hPa89%
28-May-2024 09:00Clear Sky5°C7 mph, SW4%10000m1026hPa89%
28-May-2024 12:00Clear Sky6°C4 mph, SW0%10000m1028hPa83%
28-May-2024 15:00Few Clouds12°C4 mph, S19%10000m1028hPa64%
28-May-2024 18:00Few Clouds14°C0 mph, NW23%10000m1026hPa61%